Time;durP1;ratioP1;P1;durP2;ratioP2;P2;SDS_P1;SDS_P2;PMS_P1;PMS_P2;Temp;Humidity;BMP_temperature;BMP_pressure;BME280_temperature;BME280_humidity;BME280_pressure;Samples;Min_cycle;Max_cycle;Signal;HPM_P1;HPM_P2
2024/02/15 00:00:12;;;;;;;4.78;4.05;;;;;;;4.72;63.64;93732.06;519555;28;865;-70
2024/02/15 00:00:28;;;;;;;6.68;4.05;;;;;;;4.52;63.86;93703.09;519662;28;841;-70
2024/02/15 00:00:45;;;;;;;6.90;4.03;;;;;;;4.73;63.74;93732.81;519691;28;798;-70
2024/02/15 00:01:00;;;;;;;4.25;3.85;;;;;;;4.73;63.69;93721.88;519680;28;1969;-71
2024/02/15 00:01:16;;;;;;;4.25;3.85;;;;;;;4.71;63.32;93727.13;519591;28;762;-70
2024/02/15 00:01:31;;;;;;;5.37;4.23;;;;;;;4.68;63.42;93739.09;519611;28;844;-70
2024/02/15 00:01:46;;;;;;;5.27;4.20;;;;;;;4.68;63.20;93733.63;519643;28;794;-70
2024/02/15 00:02:02;;;;;;;4.87;4.20;;;;;;;4.68;63.28;93725.41;519682;28;841;-70
2024/02/15 00:02:17;;;;;;;4.90;4.30;;;;;;;4.70;63.57;93723.63;519707;28;836;-70
2024/02/15 00:02:33;;;;;;;5.07;4.00;;;;;;;4.71;63.42;93736.06;519672;28;837;-70
2024/02/15 00:02:48;;;;;;;4.87;3.90;;;;;;;4.71;63.34;93735.31;519679;28;817;-70
2024/02/15 00:03:08;;;;;;;5.25;4.60;;;;;;;4.70;63.58;93731.84;519610;28;888;-70
2024/02/15 00:03:24;;;;;;;7.15;5.50;;;;;;;4.71;63.72;93729.84;519597;28;928;-70
2024/02/15 00:03:40;;;;;;;6.37;5.07;;;;;;;4.70;63.79;93728.38;519757;28;786;-70
2024/02/15 00:03:55;;;;;;;6.07;4.65;;;;;;;4.69;63.40;93729.63;518156;28;778;-70
2024/02/15 00:04:11;;;;;;;5.97;4.45;;;;;;;4.67;63.94;93726.63;517412;28;944;-70
2024/02/15 00:04:26;;;;;;;5.33;4.27;;;;;;;4.67;63.91;93727.38;517490;28;808;-70
2024/02/15 00:04:42;;;;;;;5.22;3.97;;;;;;;4.68;63.99;93733.63;517473;28;868;-70
2024/02/15 00:04:57;;;;;;;4.53;3.60;;;;;;;4.68;64.21;93736.34;517482;28;826;-70
2024/02/15 00:05:15;;;;;;;4.13;3.72;;;;;;;4.68;64.15;93731.59;517493;28;849;-70
2024/02/15 00:05:31;;;;;;;4.15;3.75;;;;;;;4.70;63.90;93736.59;517391;28;873;-70
2024/02/15 00:05:46;;;;;;;4.00;3.60;;;;;;;4.60;64.05;93720.47;518216;28;1081;-70
2024/02/15 00:06:02;;;;;;;4.80;3.85;;;;;;;4.66;64.33;93727.91;519701;28;790;-70
2024/02/15 00:06:17;;;;;;;5.03;3.87;;;;;;;4.65;64.31;93732.63;519729;28;781;-70
2024/02/15 00:06:33;;;;;;;4.72;4.10;;;;;;;4.63;64.55;93738.56;519740;28;999;-70
2024/02/15 00:06:48;;;;;;;4.70;4.03;;;;;;;4.63;64.81;93734.38;519665;28;785;-70
2024/02/15 00:07:04;;;;;;;4.20;3.80;;;;;;;4.56;64.33;93736.38;519600;28;864;-70
2024/02/15 00:07:22;;;;;;;4.17;3.77;;;;;;;4.57;64.36;93737.09;519649;28;893;-70
2024/02/15 00:07:38;;;;;;;5.07;3.83;;;;;;;4.54;64.33;93727.19;519678;28;860;-70
2024/02/15 00:07:54;;;;;;;5.35;3.90;;;;;;;4.60;64.46;93736.88;519599;28;948;-70
2024/02/15 00:08:09;;;;;;;4.50;3.80;;;;;;;4.63;64.90;93735.13;519653;28;837;-70
2024/02/15 00:08:26;;;;;;;5.20;3.80;;;;;;;4.65;64.12;93732.63;519543;28;880;-70
2024/02/15 00:08:42;;;;;;;4.55;3.65;;;;;;;4.64;64.39;93731.13;519653;28;825;-70
2024/02/15 00:08:57;;;;;;;4.00;3.57;;;;;;;4.52;64.43;93714.03;519737;28;1066;-70
2024/02/15 00:09:13;;;;;;;4.82;3.75;;;;;;;4.68;64.79;93725.41;519691;28;928;-70
2024/02/15 00:09:28;;;;;;;4.80;3.87;;;;;;;4.68;64.39;93730.88;519642;28;853;-70
2024/02/15 00:09:43;;;;;;;4.03;3.63;;;;;;;4.68;64.50;93731.59;519621;28;857;-70
2024/02/15 00:09:59;;;;;;;4.18;3.72;;;;;;;4.67;64.43;93729.38;519653;28;810;-70
2024/02/15 00:10:15;;;;;;;5.47;4.27;;;;;;;4.61;64.44;93730.13;519565;28;897;-70
2024/02/15 00:10:30;;;;;;;5.15;4.25;;;;;;;4.67;64.19;93735.59;517484;28;790;-70
2024/02/15 00:10:46;;;;;;;5.03;4.10;;;;;;;4.66;64.38;93739.56;517396;28;991;-70
2024/02/15 00:11:01;;;;;;;4.80;3.90;;;;;;;4.67;64.35;93732.88;517460;28;822;-70
2024/02/15 00:11:17;;;;;;;4.13;3.70;;;;;;;4.68;64.20;93733.63;517399;28;770;-70
2024/02/15 00:11:33;;;;;;;4.57;3.80;;;;;;;4.68;64.36;93733.63;517517;28;881;-70
2024/02/15 00:11:48;;;;;;;4.60;3.67;;;;;;;4.70;64.06;93737.31;517431;28;877;-70
2024/02/15 00:12:05;;;;;;;4.40;3.50;;;;;;;4.67;64.08;93732.13;517430;28;868;-70
2024/02/15 00:12:20;;;;;;;4.00;3.53;;;;;;;4.66;63.95;93731.38;518146;28;870;-70
2024/02/15 00:12:36;;;;;;;4.10;3.58;;;;;;;4.66;64.44;93736.84;519560;28;766;-70
2024/02/15 00:12:52;;;;;;;3.90;3.42;;;;;;;4.66;64.66;93730.63;519619;28;770;-70
2024/02/15 00:13:07;;;;;;;3.77;3.47;;;;;;;4.64;64.72;93728.38;519641;28;785;-70
2024/02/15 00:13:23;;;;;;;3.75;3.45;;;;;;;4.65;64.86;93731.88;519677;28;762;-70
2024/02/15 00:13:38;;;;;;;3.67;3.37;;;;;;;4.58;65.08;93733.13;519702;28;798;-70
2024/02/15 00:13:56;;;;;;;3.50;3.20;;;;;;;4.57;65.54;93731.63;519603;28;786;-70
2024/02/15 00:14:12;;;;;;;3.40;3.10;;;;;;;4.57;65.58;93732.38;519606;28;869;-70
2024/02/15 00:14:28;;;;;;;3.70;3.40;;;;;;;4.60;65.16;93733.38;519654;28;1095;-70
2024/02/15 00:14:43;;;;;;;4.07;3.40;;;;;;;4.60;64.90;93725.19;519653;28;833;-70
2024/02/15 00:14:59;;;;;;;3.95;3.30;;;;;;;4.58;65.59;93731.16;519682;28;849;-70
2024/02/15 00:15:14;;;;;;;4.00;3.37;;;;;;;4.59;65.55;93727.16;519605;28;785;-70
2024/02/15 00:15:30;;;;;;;4.40;3.50;;;;;;;4.59;65.46;93729.19;519607;28;1007;-70
2024/02/15 00:15:48;;;;;;;5.00;3.87;;;;;;;4.62;65.16;93733.63;519643;28;849;-70
2024/02/15 00:16:03;;;;;;;4.88;3.78;;;;;;;4.64;65.72;93728.38;519615;28;854;-70
2024/02/15 00:16:19;;;;;;;4.55;3.75;;;;;;;4.66;65.59;93727.91;519646;28;820;-70
2024/02/15 00:16:37;;;;;;;4.30;3.73;;;;;;;4.66;65.23;93731.38;519650;28;865;-70
2024/02/15 00:16:53;;;;;;;4.20;3.67;;;;;;;4.68;65.34;93726.13;519589;28;928;-70
2024/02/15 00:17:08;;;;;;;4.10;3.70;;;;;;;4.68;65.32;93730.88;519627;28;854;-70
2024/02/15 00:17:25;;;;;;;4.40;3.60;;;;;;;4.65;64.95;93726.41;519545;28;826;-70
2024/02/15 00:17:40;;;;;;;4.18;3.50;;;;;;;4.61;64.73;93735.59;519601;28;849;-70
2024/02/15 00:17:56;;;;;;;3.80;3.50;;;;;;;4.60;64.97;93717.72;519663;28;853;-70
2024/02/15 00:18:11;;;;;;;4.30;3.80;;;;;;;4.63;64.81;93724.91;519464;28;746;-70
2024/02/15 00:18:27;;;;;;;4.40;3.60;;;;;;;4.63;64.71;93724.19;519623;28;837;-70
2024/02/15 00:18:42;;;;;;;4.20;3.58;;;;;;;4.66;65.11;93731.38;519652;28;786;-70
2024/02/15 00:18:59;;;;;;;4.07;3.63;;;;;;;4.66;64.91;93723.16;519676;28;821;-70
2024/02/15 00:19:17;;;;;;;4.13;3.50;;;;;;;4.65;64.94;93732.63;519642;28;841;-70
2024/02/15 00:19:33;;;;;;;4.80;3.78;;;;;;;4.63;65.51;93726.16;519515;28;960;-70
2024/02/15 00:19:48;;;;;;;4.43;3.93;;;;;;;4.59;65.12;93727.16;519659;28;813;-70
2024/02/15 00:20:09;;;;;;;5.05;3.95;;;;;;;4.59;65.11;93720.97;519671;28;781;-70
2024/02/15 00:20:24;;;;;;;5.55;3.97;;;;;;;4.58;64.97;93725.69;519506;28;841;-70
2024/02/15 00:20:40;;;;;;;4.68;3.63;;;;;;;4.60;65.14;93723.19;519705;28;821;-70
2024/02/15 00:20:55;;;;;;;5.47;3.83;;;;;;;4.59;64.97;93729.19;519468;28;1922;-70
2024/02/15 00:21:11;;;;;;;5.53;4.00;;;;;;;4.59;65.35;93727.16;519757;28;805;-70
2024/02/15 00:21:26;;;;;;;4.83;4.10;;;;;;;4.58;65.05;93720.22;519597;28;966;-70
2024/02/15 00:21:43;;;;;;;5.30;4.32;;;;;;;4.57;65.20;93723.44;519630;28;869;-70
2024/02/15 00:21:59;;;;;;;4.25;3.75;;;;;;;4.53;65.19;93717.50;519675;28;928;-70
2024/02/15 00:22:15;;;;;;;3.75;3.35;;;;;;;4.59;65.43;93724.44;519582;28;773;-71
2024/02/15 00:22:31;;;;;;;5.10;3.47;;;;;;;4.59;65.38;93721.69;519617;28;845;-70
2024/02/15 00:22:47;;;;;;;5.57;3.60;;;;;;;4.58;65.26;93722.94;519653;28;860;-70
2024/02/15 00:23:03;;;;;;;4.80;3.80;;;;;;;4.58;65.38;93724.94;519695;28;892;-70
2024/02/15 00:23:18;;;;;;;4.27;3.77;;;;;;;4.59;64.88;93720.97;519545;28;1095;-70
2024/02/15 00:23:34;;;;;;;4.18;3.78;;;;;;;4.57;65.11;93726.91;519603;28;810;-70
2024/02/15 00:23:50;;;;;;;3.83;3.53;;;;;;;4.61;64.91;93718.47;519609;28;754;-70
2024/02/15 00:24:05;;;;;;;4.20;3.80;;;;;;;4.61;65.31;93727.41;519597;28;778;-70
2024/02/15 00:24:21;;;;;;;4.32;3.90;;;;;;;4.58;65.04;93722.94;519614;28;778;-70
2024/02/15 00:24:37;;;;;;;4.23;3.50;;;;;;;4.58;64.74;93725.69;519614;28;786;-70
2024/02/15 00:24:53;;;;;;;4.25;3.40;;;;;;;4.56;64.89;93728.19;519633;28;814;-70
2024/02/15 00:25:09;;;;;;;4.00;3.37;;;;;;;4.57;64.94;93718.72;519615;28;845;-70
2024/02/15 00:25:25;;;;;;;4.50;3.83;;;;;;;4.57;64.90;93721.44;519521;28;884;-70
2024/02/15 00:25:43;;;;;;;4.57;3.83;;;;;;;4.58;65.09;93724.94;519686;28;872;-70
2024/02/15 00:25:59;;;;;;;4.10;3.67;;;;;;;4.56;64.70;93722.72;519669;28;872;-70
2024/02/15 00:26:15;;;;;;;4.10;3.63;;;;;;;4.55;65.40;93723.19;519647;28;845;-70
2024/02/15 00:26:31;;;;;;;4.40;3.80;;;;;;;4.54;65.30;93725.22;519542;28;1199;-70
2024/02/15 00:26:47;;;;;;;4.25;3.85;;;;;;;4.56;65.29;93721.97;519635;28;817;-70
2024/02/15 00:27:04;;;;;;;4.03;3.63;;;;;;;4.56;65.34;93721.97;517446;28;857;-70
2024/02/15 00:27:20;;;;;;;4.30;3.90;;;;;;;4.57;64.97;93729.66;517396;28;849;-70
2024/02/15 00:27:35;;;;;;;4.03;3.63;;;;;;;4.56;64.48;93728.19;517394;28;821;-70
2024/02/15 00:27:51;;;;;;;3.92;3.58;;;;;;;4.57;64.56;93717.97;517389;28;896;-70
2024/02/15 00:28:07;;;;;;;4.50;4.10;;;;;;;4.57;64.45;93726.16;517474;28;842;-70
2024/02/15 00:28:23;;;;;;;4.40;4.00;;;;;;;4.58;64.47;93716.72;517321;28;829;-70
2024/02/15 00:28:41;;;;;;;4.53;4.13;;;;;;;4.34;64.51;93692.72;517495;28;884;-70
2024/02/15 00:28:58;;;;;;;4.50;4.10;;;;;;;4.58;64.65;93720.22;518648;28;948;-70
2024/02/15 00:29:13;;;;;;;4.03;3.47;;;;;;;4.60;64.78;93723.19;519585;28;837;-70
2024/02/15 00:29:29;;;;;;;5.80;3.93;;;;;;;4.54;64.47;93710.78;519543;28;833;-70
2024/02/15 00:29:45;;;;;;;5.70;4.27;;;;;;;4.52;65.04;93714.03;519621;28;818;-70
2024/02/15 00:30:02;;;;;;;5.68;3.83;;;;;;;4.53;65.54;93715.50;519729;28;864;-70
2024/02/15 00:30:17;;;;;;;5.05;3.40;;;;;;;4.48;66.19;93713.53;519625;28;881;-70
2024/02/15 00:30:33;;;;;;;3.78;3.47;;;;;;;4.47;65.45;93716.78;519570;28;802;-70
2024/02/15 00:30:48;;;;;;;4.10;3.70;;;;;;;4.47;65.31;93712.06;519691;28;789;-70
2024/02/15 00:31:04;;;;;;;4.03;3.63;;;;;;;4.45;65.06;93714.56;519607;28;766;-70
2024/02/15 00:31:19;;;;;;;4.37;3.97;;;;;;;4.31;65.33;93693.72;519625;28;1007;-70
2024/02/15 00:31:38;;;;;;;4.53;4.13;;;;;;;4.44;65.28;93718.53;519677;28;833;-70
2024/02/15 00:31:53;;;;;;;4.35;3.95;;;;;;;4.43;65.39;93717.03;519567;28;841;-70
2024/02/15 00:32:12;;;;;;;4.15;3.75;;;;;;;4.43;65.35;93717.03;519607;28;868;-70
2024/02/15 00:32:28;;;;;;;4.43;3.80;;;;;;;4.42;64.95;93723.00;519578;28;865;-70
2024/02/15 00:32:46;;;;;;;4.20;3.80;;;;;;;4.39;65.03;93719.31;519592;28;865;-70
2024/02/15 00:33:02;;;;;;;3.95;3.55;;;;;;;4.40;65.55;93720.78;519659;28;909;-70
2024/02/15 00:33:18;;;;;;;4.00;3.60;;;;;;;4.41;64.85;93725.00;519507;28;896;-70
2024/02/15 00:33:35;;;;;;;4.10;3.70;;;;;;;4.41;65.65;93718.78;519619;28;884;-70
2024/02/15 00:33:50;;;;;;;5.25;3.83;;;;;;;4.41;65.12;93716.81;519667;28;865;-70
2024/02/15 00:34:06;;;;;;;5.15;3.72;;;;;;;4.42;65.24;93712.06;519541;28;873;-70
2024/02/15 00:34:22;;;;;;;4.30;3.90;;;;;;;4.42;65.72;93717.53;519674;28;766;-70
2024/02/15 00:34:40;;;;;;;4.77;4.27;;;;;;;4.43;65.85;93717.03;519630;28;801;-70
2024/02/15 00:34:55;;;;;;;4.80;4.00;;;;;;;4.43;66.13;93716.28;519593;28;1099;-70
2024/02/15 00:35:11;;;;;;;4.47;4.07;;;;;;;4.42;66.52;93718.28;519669;28;834;-70
2024/02/15 00:35:27;;;;;;;4.60;4.20;;;;;;;4.42;66.54;93721.00;519600;28;895;-70
2024/02/15 00:35:43;;;;;;;4.75;4.22;;;;;;;4.43;66.30;93713.56;519621;28;802;-70
2024/02/15 00:35:58;;;;;;;5.33;4.60;;;;;;;4.43;66.68;93722.50;519568;28;876;-70
2024/02/15 00:36:14;;;;;;;5.93;4.70;;;;;;;4.44;66.67;93715.06;519569;28;836;-70
2024/02/15 00:36:29;;;;;;;5.20;4.60;;;;;;;4.45;66.94;93716.53;519562;28;770;-70
2024/02/15 00:36:45;;;;;;;5.30;4.80;;;;;;;4.46;66.60;93720.78;519557;28;758;-70
2024/02/15 00:37:00;;;;;;;5.20;4.73;;;;;;;4.47;66.97;93723.00;517430;28;794;-70
2024/02/15 00:37:16;;;;;;;5.43;4.93;;;;;;;4.47;66.52;93723.00;517401;28;762;-71
2024/02/15 00:37:31;;;;;;;5.90;5.23;;;;;;;4.48;66.85;93724.47;517306;28;892;-70
2024/02/15 00:37:47;;;;;;;5.72;4.82;;;;;;;4.47;66.74;93720.25;517421;28;854;-70
2024/02/15 00:38:03;;;;;;;6.30;4.80;;;;;;;4.46;66.96;93723.50;517473;28;1076;-70
2024/02/15 00:38:19;;;;;;;5.93;4.80;;;;;;;4.46;66.74;93724.22;517354;28;956;-70
2024/02/15 00:38:35;;;;;;;5.20;4.70;;;;;;;4.46;66.69;93720.78;517411;28;798;-70
2024/02/15 00:38:51;;;;;;;4.90;4.50;;;;;;;4.47;66.82;93722.25;517925;28;825;-70
2024/02/15 00:39:08;;;;;;;5.00;4.50;;;;;;;4.45;67.57;93722.00;519591;28;960;-70
2024/02/15 00:39:23;;;;;;;5.43;4.90;;;;;;;4.44;67.76;93720.53;519559;28;936;-70
2024/02/15 00:39:39;;;;;;;5.28;4.78;;;;;;;4.40;67.66;93720.78;519657;28;837;-70
2024/02/15 00:39:54;;;;;;;5.57;4.97;;;;;;;4.40;67.82;93715.31;519621;28;794;-70
2024/02/15 00:40:10;;;;;;;6.63;5.10;;;;;;;4.42;67.81;93720.25;519590;28;773;-70
2024/02/15 00:40:25;;;;;;;7.03;5.03;;;;;;;4.36;68.13;93711.34;519517;28;769;-70
2024/02/15 00:40:41;;;;;;;6.20;4.88;;;;;;;4.39;68.28;93724.00;519663;28;832;-70
2024/02/15 00:40:56;;;;;;;5.63;4.90;;;;;;;4.40;68.10;93722.75;519583;28;1910;-70
2024/02/15 00:41:12;;;;;;;5.53;5.00;;;;;;;4.39;68.41;93722.03;519562;28;800;-70
2024/02/15 00:41:28;;;;;;;6.82;5.38;;;;;;;4.39;68.35;93727.50;519598;28;908;-70
2024/02/15 00:41:45;;;;;;;6.73;5.53;;;;;;;4.39;68.63;93724.75;519575;28;793;-70
2024/02/15 00:42:00;;;;;;;6.30;5.70;;;;;;;4.41;68.12;93724.25;519705;28;852;-70
2024/02/15 00:42:16;;;;;;;6.10;5.50;;;;;;;4.41;68.26;93733.22;519620;28;1159;-70
2024/02/15 00:42:31;;;;;;;6.13;5.13;;;;;;;4.42;68.33;93729.22;519597;28;817;-70
2024/02/15 00:42:47;;;;;;;6.10;5.03;;;;;;;4.40;68.60;93723.50;519593;28;869;-70
2024/02/15 00:43:02;;;;;;;5.97;5.20;;;;;;;4.41;68.68;93732.47;519586;28;829;-70
2024/02/15 00:43:18;;;;;;;10.30;5.68;;;;;;;4.39;68.86;93727.50;519564;28;965;-69
2024/02/15 00:43:36;;;;;;;9.60;5.20;;;;;;;4.41;68.49;93729.72;519518;28;948;-70
2024/02/15 00:43:52;;;;;;;6.30;5.38;;;;;;;4.41;68.47;93725.00;519612;28;880;-70
2024/02/15 00:44:10;;;;;;;6.00;5.40;;;;;;;4.41;68.91;93727.75;519797;28;1179;-70
2024/02/15 00:44:26;;;;;;;5.50;4.90;;;;;;;4.42;68.35;93726.47;521667;28;829;-70
2024/02/15 00:44:42;;;;;;;5.93;4.85;;;;;;;4.38;68.74;93720.53;521648;28;829;-70
2024/02/15 00:44:58;;;;;;;6.97;5.63;;;;;;;4.42;68.53;93728.47;521673;28;785;-70
2024/02/15 00:45:13;;;;;;;7.40;5.85;;;;;;;4.42;68.80;93731.94;521636;28;1087;-70
2024/02/15 00:45:29;;;;;;;7.20;5.55;;;;;;;4.42;68.77;93729.22;521629;28;853;-70
2024/02/15 00:45:44;;;;;;;6.47;5.63;;;;;;;4.41;68.68;93727.75;521693;28;840;-70
2024/02/15 00:45:59;;;;;;;6.35;5.75;;;;;;;4.43;68.74;93732.69;521647;28;888;-70
2024/02/15 00:46:18;;;;;;;6.13;5.20;;;;;;;4.44;68.56;93732.19;521637;28;1043;-70
2024/02/15 00:46:33;;;;;;;5.75;5.10;;;;;;;4.44;68.68;93728.72;521636;28;824;-70
2024/02/15 00:46:49;;;;;;;5.53;5.03;;;;;;;4.43;69.27;93725.25;521207;28;1253;-70
2024/02/15 00:47:04;;;;;;;5.33;4.83;;;;;;;4.44;68.63;93729.44;519577;28;956;-70
2024/02/15 00:47:20;;;;;;;5.68;5.07;;;;;;;4.43;69.00;93721.75;519491;28;975;-70
2024/02/15 00:47:38;;;;;;;5.47;4.82;;;;;;;4.21;68.66;93700.72;519507;28;888;-70
2024/02/15 00:47:53;;;;;;;5.28;4.78;;;;;;;4.43;68.64;93730.72;519447;28;1324;-70
2024/02/15 00:48:09;;;;;;;5.25;4.75;;;;;;;4.42;69.01;93731.94;519573;28;978;-70
2024/02/15 00:48:28;;;;;;;5.57;4.82;;;;;;;4.42;69.11;93731.94;519487;28;782;-70
2024/02/15 00:48:44;;;;;;;5.15;4.65;;;;;;;4.42;69.04;93734.69;519490;28;908;-70
2024/02/15 00:48:59;;;;;;;4.93;4.47;;;;;;;4.40;68.19;93734.44;517417;28;840;-70
2024/02/15 00:49:15;;;;;;;5.35;4.82;;;;;;;4.37;68.29;93730.00;517393;28;918;-70
2024/02/15 00:49:32;;;;;;;6.13;5.00;;;;;;;4.36;68.24;93733.22;517409;28;773;-70
2024/02/15 00:49:47;;;;;;;6.57;5.00;;;;;;;4.34;67.96;93728.25;517396;28;892;-70
2024/02/15 00:50:03;;;;;;;6.13;5.03;;;;;;;4.34;67.84;93730.22;517339;28;849;-70
2024/02/15 00:50:18;;;;;;;6.30;4.97;;;;;;;4.35;68.02;93731.75;517465;28;797;-70
2024/02/15 00:50:34;;;;;;;6.38;4.63;;;;;;;4.35;68.11;93731.75;517363;28;924;-70
2024/02/15 00:50:49;;;;;;;5.67;4.73;;;;;;;4.35;68.46;93729.72;518012;28;877;-70
2024/02/15 00:51:04;;;;;;;5.88;4.97;;;;;;;4.37;68.41;93734.72;519592;28;829;-70
2024/02/15 00:51:20;;;;;;;6.37;4.80;;;;;;;4.37;68.00;93730.00;519468;28;829;-70
2024/02/15 00:51:36;;;;;;;6.45;4.72;;;;;;;4.37;68.54;93729.25;519545;28;897;-70
2024/02/15 00:51:51;;;;;;;5.63;4.80;;;;;;;4.38;68.42;93726.00;519607;28;928;-70
2024/02/15 00:52:07;;;;;;;5.50;5.00;;;;;;;4.38;68.22;93736.19;519573;28;857;-70
2024/02/15 00:52:23;;;;;;;5.57;5.03;;;;;;;4.39;68.52;93732.22;519581;28;848;-70
2024/02/15 00:52:38;;;;;;;5.63;4.97;;;;;;;4.39;68.33;93732.22;519603;28;865;-70
2024/02/15 00:52:54;;;;;;;5.57;5.00;;;;;;;4.40;68.19;93730.97;519580;28;805;-70
2024/02/15 00:53:09;;;;;;;5.87;5.27;;;;;;;4.41;68.01;93737.94;519642;28;970;-70
2024/02/15 00:53:25;;;;;;;5.88;5.18;;;;;;;4.41;68.31;93727.00;519537;28;834;-70
2024/02/15 00:53:40;;;;;;;6.77;5.10;;;;;;;4.41;68.71;93732.47;519513;28;781;-70
2024/02/15 00:53:56;;;;;;;8.10;4.90;;;;;;;4.42;68.53;93733.94;519581;28;793;-70
2024/02/15 00:54:11;;;;;;;7.23;5.03;;;;;;;4.41;68.72;93735.19;519475;28;844;-70
2024/02/15 00:54:26;;;;;;;5.50;5.00;;;;;;;4.38;68.36;93733.44;519622;28;864;-70
2024/02/15 00:54:42;;;;;;;5.03;4.53;;;;;;;4.39;68.53;93732.97;519579;28;750;-71
2024/02/15 00:54:57;;;;;;;5.20;4.53;;;;;;;4.39;68.53;93721.28;519609;28;892;-70
2024/02/15 00:55:13;;;;;;;5.53;4.50;;;;;;;4.38;68.66;93726.00;519636;28;982;-70
2024/02/15 00:55:28;;;;;;;5.97;4.80;;;;;;;4.39;68.71;93726.75;519474;28;813;-70
2024/02/15 00:55:44;;;;;;;5.60;5.03;;;;;;;4.40;68.38;93733.69;519630;28;829;-70
2024/02/15 00:55:59;;;;;;;5.63;4.97;;;;;;;4.40;68.82;93731.72;519618;28;864;-70
2024/02/15 00:56:15;;;;;;;6.38;4.65;;;;;;;4.40;69.02;93726.25;519545;28;762;-70
2024/02/15 00:56:31;;;;;;;6.37;4.47;;;;;;;4.41;68.57;93735.94;519531;28;913;-70
2024/02/15 00:56:47;;;;;;;6.20;4.78;;;;;;;4.41;68.89;93730.47;519220;28;908;-70
2024/02/15 00:57:03;;;;;;;6.15;5.05;;;;;;;4.40;68.62;93737.19;519196;28;841;-70
2024/02/15 00:57:18;;;;;;;5.47;4.90;;;;;;;4.38;68.32;93725.25;519372;28;960;-70
2024/02/15 00:57:34;;;;;;;5.47;4.97;;;;;;;4.37;68.66;93737.44;519565;28;906;-70
2024/02/15 00:57:49;;;;;;;6.40;5.13;;;;;;;4.37;68.76;93734.72;519681;28;785;-70
2024/02/15 00:58:04;;;;;;;5.75;4.60;;;;;;;4.35;68.83;93732.47;519640;28;774;-70
2024/02/15 00:58:21;;;;;;;5.00;4.50;;;;;;;4.33;68.59;93731.50;519473;28;971;-71
2024/02/15 00:58:37;;;;;;;4.82;4.32;;;;;;;4.32;68.55;93733.47;519503;28;919;-70
2024/02/15 00:58:52;;;;;;;5.10;4.60;;;;;;;4.33;68.46;93729.47;519601;28;837;-70
2024/02/15 00:59:07;;;;;;;5.25;4.60;;;;;;;4.32;68.27;93724.53;519642;28;840;-70
2024/02/15 00:59:23;;;;;;;5.03;4.37;;;;;;;4.34;68.42;93730.22;519595;28;835;-70
2024/02/15 00:59:38;;;;;;;5.20;4.70;;;;;;;4.33;68.36;93729.47;519557;28;856;-70
2024/02/15 00:59:54;;;;;;;6.17;4.77;;;;;;;4.35;68.17;93732.47;519569;28;754;-70
2024/02/15 01:00:10;;;;;;;6.47;4.73;;;;;;;4.36;68.27;93728.50;519670;28;893;-70
2024/02/15 01:00:26;;;;;;;5.88;4.70;;;;;;;4.37;68.26;93730.00;519481;28;806;-70
2024/02/15 01:00:41;;;;;;;5.70;4.82;;;;;;;4.39;68.20;93729.47;519631;28;896;-70
2024/02/15 01:00:56;;;;;;;6.28;4.90;;;;;;;4.39;68.24;93732.97;519469;28;1971;-70
2024/02/15 01:01:12;;;;;;;7.83;4.97;;;;;;;4.40;68.08;93736.41;519566;28;821;-70
2024/02/15 01:01:27;;;;;;;7.25;4.93;;;;;;;4.39;67.85;93732.22;519497;28;1050;-70
2024/02/15 01:01:43;;;;;;;5.60;4.87;;;;;;;4.40;67.64;93734.44;519541;28;770;-70
2024/02/15 01:01:59;;;;;;;5.93;5.13;;;;;;;4.41;68.14;93735.94;519625;28;778;-70
2024/02/15 01:02:15;;;;;;;6.20;5.05;;;;;;;4.41;67.56;93732.47;519603;28;881;-70
2024/02/15 01:02:30;;;;;;;5.70;4.73;;;;;;;4.39;67.73;93730.22;519475;28;840;-70
2024/02/15 01:02:46;;;;;;;5.20;4.70;;;;;;;4.41;67.79;93732.47;519524;28;865;-70
2024/02/15 01:03:02;;;;;;;5.55;4.95;;;;;;;4.41;67.63;93730.47;519667;28;864;-70
2024/02/15 01:03:19;;;;;;;5.57;4.85;;;;;;;4.42;67.79;93737.41;519622;28;861;-70
2024/02/15 01:03:35;;;;;;;5.53;5.00;;;;;;;4.43;67.95;93732.69;519548;28;895;-70
2024/02/15 01:03:50;;;;;;;6.15;5.30;;;;;;;4.44;67.73;93729.44;519469;28;813;-70
2024/02/15 01:04:06;;;;;;;5.50;4.77;;;;;;;4.44;67.48;93728.72;519579;28;766;-70
2024/02/15 01:04:22;;;;;;;5.80;5.07;;;;;;;4.46;67.52;93734.44;519539;28;778;-70
2024/02/15 01:04:39;;;;;;;6.57;5.65;;;;;;;4.40;67.85;93726.25;519573;28;879;-70
2024/02/15 01:04:57;;;;;;;6.07;5.45;;;;;;;4.45;67.93;93730.97;519530;28;896;-70
2024/02/15 01:05:15;;;;;;;5.50;4.93;;;;;;;4.45;67.32;93730.97;519540;28;904;-70
2024/02/15 01:05:31;;;;;;;7.05;4.90;;;;;;;4.44;67.59;93729.44;517239;28;2454;-70
2024/02/15 01:05:46;;;;;;;6.63;5.10;;;;;;;4.44;67.54;93734.91;517399;28;844;-70
2024/02/15 01:06:02;;;;;;;5.65;4.95;;;;;;;4.21;67.23;93699.97;517421;28;869;-70
2024/02/15 01:06:18;;;;;;;5.35;4.85;;;;;;;4.46;67.46;93729.69;517325;28;841;-70
2024/02/15 01:06:34;;;;;;;5.75;5.18;;;;;;;4.46;67.46;93732.44;517298;28;943;-70
2024/02/15 01:06:49;;;;;;;6.93;5.87;;;;;;;4.46;67.11;93731.72;517348;28;881;-70
2024/02/15 01:07:05;;;;;;;7.18;6.28;;;;;;;4.47;67.39;93727.72;517416;28;869;-70
2024/02/15 01:07:20;;;;;;;7.30;6.27;;;;;;;4.48;67.54;93723.75;517940;28;864;-70
2024/02/15 01:07:36;;;;;;;7.82;6.38;;;;;;;4.49;67.26;93733.41;519474;28;1548;-70
2024/02/15 01:07:52;;;;;;;7.77;6.57;;;;;;;4.49;67.81;93730.69;519579;28;806;-70
2024/02/15 01:08:08;;;;;;;8.48;6.18;;;;;;;4.50;67.59;93732.19;519575;28;822;-70
2024/02/15 01:08:24;;;;;;;10.15;6.03;;;;;;;4.49;67.97;93731.44;519465;28;809;-70
2024/02/15 01:08:39;;;;;;;8.80;5.70;;;;;;;4.50;67.88;93732.19;519552;28;777;-70
2024/02/15 01:08:55;;;;;;;5.63;4.97;;;;;;;4.52;67.75;93735.16;519563;28;793;-70
2024/02/15 01:09:10;;;;;;;5.47;4.50;;;;;;;4.52;67.90;93733.16;519578;28;806;-70
2024/02/15 01:09:26;;;;;;;5.32;4.30;;;;;;;4.51;67.55;93734.41;519435;28;1006;-70
2024/02/15 01:09:41;;;;;;;4.47;4.07;;;;;;;4.46;67.04;93732.44;519528;28;928;-70
2024/02/15 01:09:57;;;;;;;4.47;4.07;;;;;;;4.41;66.36;93732.47;519601;28;809;-70
2024/02/15 01:10:13;;;;;;;4.50;4.10;;;;;;;4.41;67.00;93730.47;519582;28;933;-70
2024/02/15 01:10:28;;;;;;;4.68;4.28;;;;;;;4.41;66.84;93735.94;519548;28;869;-70
2024/02/15 01:10:45;;;;;;;4.97;4.50;;;;;;;4.41;67.01;93730.47;519474;28;907;-70
2024/02/15 01:11:01;;;;;;;4.93;4.43;;;;;;;4.41;67.21;93732.47;519646;28;861;-70
2024/02/15 01:11:16;;;;;;;4.70;4.20;;;;;;;4.39;67.07;93730.22;519534;28;796;-70
2024/02/15 01:11:32;;;;;;;4.40;4.00;;;;;;;4.36;67.34;93730.47;519524;28;924;-70
2024/02/15 01:11:47;;;;;;;4.40;4.00;;;;;;;4.36;66.90;93733.22;519498;28;822;-70
2024/02/15 01:12:03;;;;;;;4.20;3.80;;;;;;;4.37;67.27;93732.72;519547;28;1038;-70
2024/02/15 01:12:20;;;;;;;4.05;3.65;;;;;;;4.38;67.14;93727.97;519476;28;849;-70
2024/02/15 01:12:35;;;;;;;4.40;4.00;;;;;;;4.40;66.97;93734.44;519499;28;889;-70
2024/02/15 01:12:51;;;;;;;4.73;4.30;;;;;;;4.42;67.06;93733.94;519635;28;766;-70
2024/02/15 01:13:08;;;;;;;4.70;4.20;;;;;;;4.44;67.14;93734.91;519507;28;797;-70
2024/02/15 01:13:23;;;;;;;4.70;4.18;;;;;;;4.46;66.90;93726.97;519499;28;931;-70
2024/02/15 01:13:39;;;;;;;4.72;4.28;;;;;;;4.46;66.98;93732.44;519535;28;849;-70
2024/02/15 01:13:55;;;;;;;4.68;4.22;;;;;;;4.44;67.12;93734.19;519489;28;806;-70
2024/02/15 01:14:10;;;;;;;4.55;3.90;;;;;;;4.48;67.06;93738.13;519601;28;841;-70
2024/02/15 01:14:29;;;;;;;4.20;3.80;;;;;;;4.49;66.87;93731.44;519500;28;869;-70
2024/02/15 01:14:45;;;;;;;5.40;4.50;;;;;;;4.51;67.25;93731.69;519469;28;916;-70
2024/02/15 01:15:01;;;;;;;5.53;4.78;;;;;;;4.51;66.96;93728.94;519548;28;825;-71
2024/02/15 01:15:18;;;;;;;5.03;4.53;;;;;;;4.53;67.16;93734.66;519541;28;836;-70
2024/02/15 01:15:33;;;;;;;5.50;4.53;;;;;;;4.53;67.01;93734.66;519473;28;1009;-70
2024/02/15 01:15:49;;;;;;;5.40;4.70;;;;;;;4.55;66.84;93737.63;519609;28;1110;-70
2024/02/15 01:16:05;;;;;;;8.20;4.72;;;;;;;4.56;66.79;93735.63;519513;28;923;-70
2024/02/15 01:16:24;;;;;;;8.18;4.47;;;;;;;4.57;66.89;93734.38;519467;28;924;-70
2024/02/15 01:16:40;;;;;;;5.03;4.43;;;;;;;4.57;66.67;93737.84;519515;28;939;-69
2024/02/15 01:16:55;;;;;;;5.07;4.57;;;;;;;4.59;66.57;93740.13;519496;28;1115;-70
2024/02/15 01:17:10;;;;;;;6.28;4.43;;;;;;;4.59;66.83;93734.63;519588;28;844;-70
2024/02/15 01:17:26;;;;;;;6.57;4.30;;;;;;;4.58;66.77;93739.38;519459;28;805;-70
2024/02/15 01:17:41;;;;;;;4.40;4.00;;;;;;;4.58;66.82;93738.59;519477;28;845;-70
2024/02/15 01:17:57;;;;;;;4.40;4.00;;;;;;;4.58;66.35;93736.63;519613;28;754;-70
2024/02/15 01:18:14;;;;;;;5.10;4.40;;;;;;;4.60;66.22;93733.38;519519;28;864;-70
2024/02/15 01:18:29;;;;;;;5.15;4.35;;;;;;;4.59;66.27;93740.84;519493;28;849;-70
2024/02/15 01:18:45;;;;;;;4.68;4.05;;;;;;;4.58;66.49;93739.38;519522;28;961;-70